Time;durP1;ratioP1;P1;durP2;ratioP2;P2;SDS_P1;SDS_P2;PMS_P1;PMS_P2;Temp;Humidity;BMP_temperature;BMP_pressure;BME280_temperature;BME280_humidity;BME280_pressure;Samples;Min_cycle;Max_cycle;Signal;HPM_P1;HPM_P2
2021/10/23 00:00:39;;;;;;;;;20.00;18.67;;;;;;;;5099645;28;8818;-74
2021/10/23 00:03:04;;;;;;;;;22.67;19.33;;;;;;;;5099566;28;8790;-74
2021/10/23 00:05:29;;;;;;;;;20.00;19.33;;;;;;;;5098468;28;8813;-74
2021/10/23 00:07:55;;;;;;;;;18.67;16.67;;;;;;;;5102777;28;8789;-77
2021/10/23 00:10:20;;;;;;;;;22.33;20.67;;;;;;;;5106261;28;8774;-77
2021/10/23 00:12:45;;;;;;;;;19.67;17.33;;;;;;;;5104972;28;8781;-77
2021/10/23 00:15:11;;;;;;;;;19.00;19.00;;;;;;;;5102402;28;8875;-76
2021/10/23 00:17:36;;;;;;;;;21.00;18.67;;;;;;;;5103446;28;8825;-77
2021/10/23 00:20:02;;;;;;;;;21.33;18.00;;;;;;;;5101178;28;8997;-77
2021/10/23 00:22:28;;;;;;;;;22.33;20.00;;;;;;;;5099195;28;8778;-74
2021/10/23 00:24:53;;;;;;;;;20.67;19.00;;;;;;;;5099184;28;8909;-74
2021/10/23 00:27:19;;;;;;;;;18.00;16.67;;;;;;;;5097913;28;8832;-74
2021/10/23 00:29:44;;;;;;;;;22.67;21.33;;;;;;;;5103102;28;8859;-74
2021/10/23 00:32:09;;;;;;;;;21.67;18.33;;;;;;;;5119757;27;8830;-74
2021/10/23 00:34:34;;;;;;;;;17.00;17.00;;;;;;;;5119034;27;8783;-74
2021/10/23 00:37:00;;;;;;;;;17.67;17.33;;;;;;;;5119012;27;8858;-74
2021/10/23 00:39:25;;;;;;;;;17.33;16.67;;;;;;;;5118939;27;8783;-74
2021/10/23 00:41:50;;;;;;;;;18.33;16.67;;;;;;;;5119384;27;8905;-74
2021/10/23 00:44:32;;;;;;;;;18.33;18.33;;;;;;;;5119279;27;8905;-74
2021/10/23 00:47:24;;;;;;;;;19.50;19.50;;;;;;;;5120571;27;8787;-77
2021/10/23 00:49:51;;;;;;;;;17.00;17.00;;;;;;;;5122345;27;8728;-76
2021/10/23 00:52:17;;;;;;;;;20.00;19.25;;;;;;;;5124441;27;8744;-77
2021/10/23 00:54:43;;;;;;;;;19.50;17.75;;;;;;;;5125164;28;8784;-77
2021/10/23 00:57:08;;;;;;;;;19.00;17.33;;;;;;;;5127251;27;8875;-77
2021/10/23 00:59:34;;;;;;;;;18.00;17.67;;;;;;;;5126488;27;8783;-74
2021/10/23 01:02:00;;;;;;;;;19.00;19.00;;;;;;;;5124710;28;8818;-74
2021/10/23 01:04:25;;;;;;;;;19.33;19.00;;;;;;;;5121647;27;9687;-74
2021/10/23 01:06:51;;;;;;;;;15.67;15.67;;;;;;;;5122583;27;8810;-73
2021/10/23 01:09:17;;;;;;;;;16.33;16.33;;;;;;;;5121819;27;8790;-74
2021/10/23 01:11:43;;;;;;;;;17.00;17.00;;;;;;;;5122225;28;8775;-74
2021/10/23 01:14:12;;;;;;;;;18.67;16.67;;;;;;;;5122293;27;8787;-74
2021/10/23 01:16:39;;;;;;;;;16.25;16.25;;;;;;;;5121726;27;8854;-74
2021/10/23 01:19:04;;;;;;;;;19.50;19.00;;;;;;;;5121080;28;8783;-74
2021/10/23 01:21:30;;;;;;;;;19.67;19.67;;;;;;;;5122775;27;8901;-74
2021/10/23 01:23:55;;;;;;;;;22.00;19.00;;;;;;;;5121708;27;8817;-74
2021/10/23 01:26:24;;;;;;;;;19.67;17.00;;;;;;;;5121654;27;8787;-74
2021/10/23 01:28:50;;;;;;;;;18.50;18.50;;;;;;;;5121969;27;8913;-74
2021/10/23 01:31:15;;;;;;;;;17.33;17.33;;;;;;;;5104787;27;8906;-74
2021/10/23 01:33:40;;;;;;;;;20.00;18.67;;;;;;;;5100880;28;9603;-74
2021/10/23 01:36:07;;;;;;;;;17.67;16.33;;;;;;;;5100756;28;8818;-73
2021/10/23 01:38:33;;;;;;;;;17.25;17.25;;;;;;;;5101380;28;8780;-75
2021/10/23 01:40:58;;;;;;;;;18.00;17.00;;;;;;;;5100504;28;9565;-74
2021/10/23 01:43:23;;;;;;;;;17.33;17.33;;;;;;;;5105672;28;8809;-77
2021/10/23 01:45:48;;;;;;;;;20.00;18.33;;;;;;;;5104932;28;8801;-74
2021/10/23 01:48:13;;;;;;;;;14.67;14.33;;;;;;;;5105604;28;8766;-77
2021/10/23 01:50:39;;;;;;;;;14.00;14.00;;;;;;;;5106205;28;9533;-77
2021/10/23 01:53:04;;;;;;;;;16.33;16.33;;;;;;;;5106620;28;8798;-76
2021/10/23 01:55:29;;;;;;;;;13.67;13.67;;;;;;;;5105398;28;8801;-77
2021/10/23 01:57:56;;;;;;;;;17.33;16.33;;;;;;;;5101945;28;8805;-74
2021/10/23 02:00:21;;;;;;;;;17.50;15.25;;;;;;;;5099904;28;8734;-74
2021/10/23 02:02:46;;;;;;;;;15.00;12.67;;;;;;;;5102027;28;8804;-74
2021/10/23 02:05:12;;;;;;;;;14.00;13.33;;;;;;;;5101718;28;8814;-74
2021/10/23 02:07:37;;;;;;;;;14.67;14.00;;;;;;;;5100979;28;8821;-74
2021/10/23 02:10:03;;;;;;;;;12.67;12.33;;;;;;;;5100095;28;8833;-74
2021/10/23 02:12:29;;;;;;;;;14.00;13.00;;;;;;;;5101712;28;8785;-74
2021/10/23 02:14:54;;;;;;;;;17.00;15.33;;;;;;;;5100532;28;8785;-74
2021/10/23 02:17:19;;;;;;;;;16.67;16.67;;;;;;;;5101334;28;8921;-74
2021/10/23 02:19:44;;;;;;;;;15.00;14.33;;;;;;;;5100286;28;8817;-74
2021/10/23 02:22:10;;;;;;;;;14.00;12.67;;;;;;;;5103089;28;8781;-77
2021/10/23 02:24:35;;;;;;;;;16.67;15.00;;;;;;;;5104174;28;8810;-77
2021/10/23 02:27:00;;;;;;;;;15.33;15.33;;;;;;;;5106216;28;8801;-77
2021/10/23 02:29:26;;;;;;;;;15.00;14.00;;;;;;;;5107025;28;9561;-77
2021/10/23 02:31:51;;;;;;;;;14.00;12.67;;;;;;;;5126824;27;8829;-77
2021/10/23 02:34:19;;;;;;;;;17.00;16.67;;;;;;;;5124963;27;8779;-78
2021/10/23 02:36:45;;;;;;;;;16.25;16.25;;;;;;;;5121281;28;8833;-74
2021/10/23 02:39:10;;;;;;;;;19.33;19.00;;;;;;;;5121423;27;8791;-75
2021/10/23 02:41:35;;;;;;;;;18.00;18.00;;;;;;;;5122398;27;9626;-74
2021/10/23 02:44:01;;;;;;;;;25.67;25.00;;;;;;;;5120539;28;8795;-74
2021/10/23 02:46:26;;;;;;;;;23.00;22.33;;;;;;;;5121543;27;8874;-74
2021/10/23 02:48:51;;;;;;;;;20.33;20.33;;;;;;;;5122275;27;8824;-74
2021/10/23 02:51:17;;;;;;;;;16.33;16.33;;;;;;;;5121304;28;8806;-74
2021/10/23 02:53:42;;;;;;;;;16.33;14.33;;;;;;;;5120975;27;8799;-74
2021/10/23 02:56:07;;;;;;;;;18.00;17.33;;;;;;;;5120922;27;8931;-74
2021/10/23 02:58:33;;;;;;;;;15.33;15.33;;;;;;;;5125897;27;8837;-77
2021/10/23 03:00:58;;;;;;;;;15.00;15.00;;;;;;;;5125183;27;9619;-74
2021/10/23 03:03:24;;;;;;;;;14.33;14.33;;;;;;;;5121589;28;8798;-76
2021/10/23 03:05:52;;;;;;;;;14.67;14.67;;;;;;;;5123728;28;8813;-77
2021/10/23 03:08:20;;;;;;;;;17.00;15.75;;;;;;;;5123771;27;8865;-74
2021/10/23 03:10:48;;;;;;;;;13.75;12.75;;;;;;;;5121952;28;8787;-76
2021/10/23 03:13:13;;;;;;;;;14.50;14.50;;;;;;;;5122432;28;8732;-74
2021/10/23 03:15:39;;;;;;;;;13.67;13.67;;;;;;;;5118907;27;8823;-74
2021/10/23 03:18:04;;;;;;;;;16.00;15.00;;;;;;;;5121102;27;8818;-74
2021/10/23 03:20:30;;;;;;;;;14.00;13.67;;;;;;;;5119764;28;8810;-74
2021/10/23 03:22:58;;;;;;;;;13.00;13.00;;;;;;;;5118883;28;8814;-74
2021/10/23 03:25:24;;;;;;;;;13.75;12.00;;;;;;;;5118615;28;8783;-74
2021/10/23 03:27:51;;;;;;;;;14.00;13.00;;;;;;;;5120176;28;8806;-77
2021/10/23 03:30:26;;;;;;;;;15.25;12.50;;;;;;;;5114708;28;8729;-77
2021/10/23 03:32:51;;;;;;;;;12.50;12.50;;;;;;;;5102329;28;8813;-77
2021/10/23 03:35:17;;;;;;;;;14.33;13.67;;;;;;;;5102264;28;8806;-77
2021/10/23 03:37:45;;;;;;;;;14.00;13.33;;;;;;;;5100903;28;8822;-77
2021/10/23 03:40:10;;;;;;;;;13.50;12.75;;;;;;;;5102929;28;8742;-77
2021/10/23 03:42:36;;;;;;;;;14.33;13.33;;;;;;;;5099059;28;8900;-75
2021/10/23 03:45:01;;;;;;;;;12.67;12.67;;;;;;;;5098695;28;8928;-74
2021/10/23 03:47:26;;;;;;;;;14.00;13.00;;;;;;;;5099973;28;8890;-74
2021/10/23 03:49:52;;;;;;;;;14.00;12.33;;;;;;;;5098313;28;8813;-74
2021/10/23 03:52:28;;;;;;;;;13.00;13.00;;;;;;;;5098275;28;8797;-74
2021/10/23 03:54:56;;;;;;;;;15.25;13.75;;;;;;;;5099353;28;8794;-74
2021/10/23 03:57:22;;;;;;;;;15.00;13.33;;;;;;;;5100072;28;8821;-75
2021/10/23 03:59:50;;;;;;;;;14.00;13.00;;;;;;;;5099286;28;8798;-74
2021/10/23 04:02:29;;;;;;;;;12.75;12.00;;;;;;;;5099295;28;8807;-74
2021/10/23 04:05:10;;;;;;;;;12.75;11.75;;;;;;;;5091798;28;8766;-74
2021/10/23 04:07:52;;;;;;;;;14.50;13.50;;;;;;;;5098583;28;8912;-74
2021/10/23 04:10:36;;;;;;;;;14.25;12.25;;;;;;;;5098376;28;8825;-74
2021/10/23 04:13:22;;;;;;;;;14.25;13.00;;;;;;;;5100427;28;8794;-77
2021/10/23 04:15:49;;;;;;;;;15.33;14.67;;;;;;;;5099805;28;8782;-76
2021/10/23 04:18:14;;;;;;;;;14.00;14.00;;;;;;;;5100537;28;8746;-76
2021/10/23 04:20:40;;;;;;;;;9.67;9.67;;;;;;;;5099748;28;8851;-78
2021/10/23 04:23:06;;;;;;;;;12.67;11.33;;;;;;;;5099347;28;8867;-74
2021/10/23 04:25:32;;;;;;;;;13.75;13.25;;;;;;;;5100414;28;8781;-77
2021/10/23 04:28:00;;;;;;;;;15.67;14.33;;;;;;;;5101197;28;8924;-74
2021/10/23 04:30:25;;;;;;;;;14.75;13.00;;;;;;;;5102398;28;8753;-75
2021/10/23 04:32:51;;;;;;;;;16.00;16.00;;;;;;;;5102465;28;8806;-74
2021/10/23 04:35:16;;;;;;;;;13.00;11.33;;;;;;;;5101696;28;8840;-74
2021/10/23 04:37:44;;;;;;;;;11.33;11.00;;;;;;;;5101373;28;8833;-74
2021/10/23 04:40:12;;;;;;;;;14.00;12.00;;;;;;;;5100951;28;8722;-74
2021/10/23 04:42:47;;;;;;;;;15.25;15.00;;;;;;;;5101580;28;8786;-74
2021/10/23 04:45:26;;;;;;;;;13.25;13.25;;;;;;;;5102298;28;9774;-74
2021/10/23 04:48:02;;;;;;;;;11.00;10.50;;;;;;;;5102145;28;8781;-74
2021/10/23 04:50:31;;;;;;;;;13.50;12.75;;;;;;;;5102729;28;8800;-77
2021/10/23 04:52:56;;;;;;;;;14.00;14.00;;;;;;;;5101479;28;8782;-77
2021/10/23 04:55:21;;;;;;;;;15.00;15.00;;;;;;;;5102147;28;9617;-77
2021/10/23 04:57:50;;;;;;;;;15.00;15.00;;;;;;;;5101890;28;8828;-77
2021/10/23 05:00:18;;;;;;;;;13.00;13.00;;;;;;;;5103796;28;8832;-77
2021/10/23 05:02:44;;;;;;;;;14.75;12.50;;;;;;;;5103095;28;8762;-77
2021/10/23 05:05:09;;;;;;;;;14.00;14.00;;;;;;;;5102762;28;8794;-74
2021/10/23 05:07:35;;;;;;;;;14.33;14.33;;;;;;;;5101163;28;8805;-74
2021/10/23 05:10:00;;;;;;;;;14.67;14.67;;;;;;;;5101127;28;8822;-74
2021/10/23 05:12:25;;;;;;;;;18.33;15.00;;;;;;;;5101193;28;8802;-74
2021/10/23 05:14:51;;;;;;;;;13.33;13.00;;;;;;;;5100721;28;8810;-74
2021/10/23 05:17:16;;;;;;;;;13.00;11.00;;;;;;;;5099105;28;8853;-74
2021/10/23 05:19:41;;;;;;;;;17.00;15.00;;;;;;;;5099065;28;8846;-74
2021/10/23 05:22:09;;;;;;;;;18.67;17.33;;;;;;;;5098917;28;8790;-73
2021/10/23 05:24:35;;;;;;;;;16.00;16.00;;;;;;;;5097399;28;8778;-73
2021/10/23 05:27:00;;;;;;;;;16.33;14.00;;;;;;;;5097312;28;8794;-73
2021/10/23 05:29:26;;;;;;;;;13.67;13.67;;;;;;;;5101254;28;8794;-76
2021/10/23 05:31:51;;;;;;;;;12.67;12.67;;;;;;;;5124393;27;8829;-76
2021/10/23 05:34:17;;;;;;;;;16.33;14.33;;;;;;;;5125623;28;8786;-75
2021/10/23 05:36:42;;;;;;;;;9.67;9.33;;;;;;;;5125817;28;8814;-75
2021/10/23 05:39:07;;;;;;;;;16.00;16.00;;;;;;;;5124104;28;8819;-76
2021/10/23 05:41:33;;;;;;;;;17.00;17.00;;;;;;;;5127040;27;8800;-77
2021/10/23 05:43:58;;;;;;;;;15.33;15.00;;;;;;;;5123188;27;8798;-74
2021/10/23 05:46:23;;;;;;;;;16.00;16.00;;;;;;;;5119077;27;8803;-75
2021/10/23 05:48:49;;;;;;;;;16.33;14.33;;;;;;;;5119072;27;8791;-74
2021/10/23 05:51:14;;;;;;;;;15.67;15.67;;;;;;;;5118670;27;8945;-73
2021/10/23 05:53:39;;;;;;;;;16.00;15.67;;;;;;;;5118865;28;8898;-73
2021/10/23 05:56:05;;;;;;;;;12.33;12.33;;;;;;;;5118714;27;8900;-74
2021/10/23 05:58:30;;;;;;;;;17.33;14.67;;;;;;;;5118840;27;8790;-73
2021/10/23 06:01:00;;;;;;;;;15.67;15.67;;;;;;;;5117353;28;9446;-73
2021/10/23 06:03:26;;;;;;;;;15.25;15.25;;;;;;;;5118753;27;8801;-75
2021/10/23 06:05:54;;;;;;;;;14.00;14.00;;;;;;;;5119402;27;8775;-75
2021/10/23 06:08:22;;;;;;;;;14.00;12.75;;;;;;;;5117516;28;8783;-75
2021/10/23 06:10:47;;;;;;;;;13.50;13.50;;;;;;;;5122490;28;8809;-76
2021/10/23 06:13:13;;;;;;;;;14.33;14.33;;;;;;;;5125699;27;8823;-76
2021/10/23 06:15:38;;;;;;;;;15.67;15.33;;;;;;;;5119930;27;8830;-76
2021/10/23 06:18:03;;;;;;;;;16.33;14.00;;;;;;;;5119305;27;8818;-74
2021/10/23 06:20:29;;;;;;;;;16.00;16.00;;;;;;;;5118934;27;8795;-75
2021/10/23 06:22:54;;;;;;;;;14.33;14.33;;;;;;;;5118200;27;8815;-74
2021/10/23 06:25:20;;;;;;;;;16.67;16.67;;;;;;;;5118361;27;8787;-74
2021/10/23 06:27:46;;;;;;;;;17.00;16.67;;;;;;;;5118308;27;8807;-73
2021/10/23 06:30:12;;;;;;;;;17.00;16.00;;;;;;;;5110539;27;8782;-73
2021/10/23 06:32:44;;;;;;;;;16.67;15.33;;;;;;;;5097731;28;8812;-74
2021/10/23 06:35:09;;;;;;;;;15.25;15.00;;;;;;;;5097803;28;8840;-74
2021/10/23 06:37:35;;;;;;;;;17.67;15.00;;;;;;;;5097267;28;8825;-74
2021/10/23 06:40:00;;;;;;;;;18.00;16.33;;;;;;;;5097813;28;8789;-75
2021/10/23 06:42:25;;;;;;;;;17.67;16.00;;;;;;;;5097618;28;8794;-74
2021/10/23 06:44:50;;;;;;;;;19.33;19.00;;;;;;;;5097645;28;9577;-74
2021/10/23 06:47:15;;;;;;;;;20.00;19.00;;;;;;;;5097771;28;8858;-75
2021/10/23 06:49:41;;;;;;;;;20.00;16.67;;;;;;;;5095373;28;8856;-74
2021/10/23 06:52:06;;;;;;;;;18.00;16.00;;;;;;;;5095826;28;8817;-76
2021/10/23 06:54:31;;;;;;;;;21.00;19.67;;;;;;;;5097284;28;8810;-77
2021/10/23 06:56:56;;;;;;;;;19.00;17.00;;;;;;;;5095917;28;8814;-77
2021/10/23 06:59:22;;;;;;;;;18.33;18.33;;;;;;;;5096082;28;8817;-76
2021/10/23 07:01:47;;;;;;;;;24.00;20.67;;;;;;;;5095972;28;9584;-76
2021/10/23 07:04:12;;;;;;;;;19.33;19.33;;;;;;;;5095898;28;8848;-74
2021/10/23 07:06:38;;;;;;;;;18.33;16.33;;;;;;;;5097301;28;8852;-74
2021/10/23 07:09:03;;;;;;;;;20.00;20.00;;;;;;;;5096958;28;8859;-76
2021/10/23 07:11:28;;;;;;;;;18.33;18.33;;;;;;;;5097617;28;8793;-76
2021/10/23 07:13:53;;;;;;;;;20.33;20.33;;;;;;;;5097231;28;8820;-75
2021/10/23 07:16:18;;;;;;;;;19.67;19.33;;;;;;;;5102367;28;8842;-79
2021/10/23 07:18:44;;;;;;;;;20.00;20.00;;;;;;;;5102270;28;8797;-82
2021/10/23 07:21:09;;;;;;;;;23.00;21.67;;;;;;;;5097840;28;8857;-81
2021/10/23 07:23:34;;;;;;;;;22.00;20.00;;;;;;;;5098935;28;8809;-82
2021/10/23 07:25:59;;;;;;;;;25.33;24.00;;;;;;;;5099984;28;8909;-83
2021/10/23 07:28:25;;;;;;;;;23.00;21.33;;;;;;;;5097734;28;8897;-83
2021/10/23 07:30:50;;;;;;;;;24.00;23.33;;;;;;;;5111035;28;8815;-82
2021/10/23 07:33:15;;;;;;;;;25.67;24.00;;;;;;;;5122410;27;8811;-78
2021/10/23 07:35:40;;;;;;;;;21.33;21.00;;;;;;;;5127642;27;8787;-79
2021/10/23 07:38:06;;;;;;;;;21.67;21.67;;;;;;;;5127058;27;8819;-78
2021/10/23 07:40:31;;;;;;;;;24.00;22.00;;;;;;;;5128627;27;8791;-79
2021/10/23 07:42:56;;;;;;;;;21.00;21.00;;;;;;;;5127981;27;8807;-79
2021/10/23 07:45:21;;;;;;;;;20.00;19.00;;;;;;;;5126151;27;8954;-79
2021/10/23 07:47:46;;;;;;;;;24.00;23.00;;;;;;;;5125212;27;8851;-78
2021/10/23 07:50:12;;;;;;;;;24.67;24.00;;;;;;;;5121521;27;8779;-81
2021/10/23 07:52:37;;;;;;;;;29.00;25.33;;;;;;;;5120240;27;8783;-81
2021/10/23 07:55:04;;;;;;;;;20.33;19.67;;;;;;;;5120208;27;9469;-81
2021/10/23 07:57:29;;;;;;;;;25.33;23.33;;;;;;;;5120623;27;8839;-81
2021/10/23 07:59:54;;;;;;;;;24.67;23.33;;;;;;;;5117795;27;8944;-76
2021/10/23 08:02:20;;;;;;;;;23.67;23.00;;;;;;;;5116675;27;8783;-75
2021/10/23 08:04:45;;;;;;;;;26.00;24.33;;;;;;;;5116961;27;8894;-74
2021/10/23 08:07:10;;;;;;;;;24.33;23.67;;;;;;;;5116848;27;8838;-74
2021/10/23 08:09:36;;;;;;;;;25.00;24.67;;;;;;;;5116778;28;9358;-75
2021/10/23 08:12:03;;;;;;;;;30.67;29.67;;;;;;;;5116723;27;8791;-75
2021/10/23 08:14:28;;;;;;;;;33.00;31.00;;;;;;;;5115523;28;8830;-75
2021/10/23 08:16:53;;;;;;;;;29.00;29.00;;;;;;;;5116521;27;9300;-75
2021/10/23 08:19:22;;;;;;;;;32.67;30.67;;;;;;;;5117223;28;8807;-78
2021/10/23 08:21:47;;;;;;;;;28.00;27.33;;;;;;;;5116887;28;9047;-77
2021/10/23 08:24:15;;;;;;;;;28.33;28.33;;;;;;;;5117345;27;8997;-75
2021/10/23 08:26:42;;;;;;;;;28.67;28.67;;;;;;;;5115494;28;8791;-75
2021/10/23 08:29:07;;;;;;;;;25.00;24.50;;;;;;;;5115398;28;8979;-73
2021/10/23 08:31:33;;;;;;;;;22.33;22.33;;;;;;;;5097347;27;8834;-76
2021/10/23 08:33:58;;;;;;;;;23.33;23.00;;;;;;;;5094585;28;8895;-75
2021/10/23 08:36:24;;;;;;;;;26.00;24.33;;;;;;;;5094529;28;9560;-76
2021/10/23 08:38:52;;;;;;;;;25.00;23.00;;;;;;;;5095891;28;8786;-76
2021/10/23 08:41:18;;;;;;;;;27.00;26.00;;;;;;;;5096036;28;8794;-77
2021/10/23 08:43:44;;;;;;;;;24.00;23.00;;;;;;;;5095607;28;8841;-77
2021/10/23 08:46:12;;;;;;;;;20.00;20.00;;;;;;;;5096095;28;8810;-76
2021/10/23 08:48:38;;;;;;;;;33.00;29.25;;;;;;;;5096026;28;8758;-77
2021/10/23 08:51:03;;;;;;;;;26.33;25.00;;;;;;;;5096035;28;8837;-77
2021/10/23 08:53:30;;;;;;;;;20.00;19.00;;;;;;;;5093913;28;8847;-77
2021/10/23 08:55:56;;;;;;;;;22.50;21.50;;;;;;;;5095678;28;8870;-76
2021/10/23 08:58:22;;;;;;;;;18.25;18.25;;;;;;;;5095583;28;8765;-75
2021/10/23 09:00:47;;;;;;;;;18.67;17.33;;;;;;;;5095821;28;8821;-75
2021/10/23 09:03:12;;;;;;;;;16.33;16.33;;;;;;;;5094475;28;8895;-75
2021/10/23 09:05:37;;;;;;;;;19.00;19.00;;;;;;;;5095822;28;8820;-74
2021/10/23 09:08:10;;;;;;;;;16.67;16.00;;;;;;;;5095532;28;9671;-74
2021/10/23 09:10:35;;;;;;;;;14.25;14.25;;;;;;;;5095668;28;8792;-74
2021/10/23 09:13:02;;;;;;;;;17.33;16.33;;;;;;;;5096263;28;8802;-75
2021/10/23 09:15:30;;;;;;;;;18.00;17.50;;;;;;;;5097697;28;8794;-76
2021/10/23 09:17:55;;;;;;;;;15.75;15.00;;;;;;;;5098750;28;8829;-75
2021/10/23 09:20:20;;;;;;;;;13.67;13.00;;;;;;;;5099165;28;8794;-76
2021/10/23 09:22:50;;;;;;;;;13.67;13.00;;;;;;;;5097458;28;8813;-76
2021/10/23 09:25:18;;;;;;;;;14.25;13.00;;;;;;;;5099070;28;8770;-74
2021/10/23 09:28:03;;;;;;;;;13.00;13.00;;;;;;;;5098976;28;8894;-76
2021/10/23 09:30:39;;;;;;;;;13.00;12.75;;;;;;;;5107510;28;8814;-75
2021/10/23 09:33:08;;;;;;;;;13.00;12.25;;;;;;;;5119396;27;8852;-75
2021/10/23 09:35:40;;;;;;;;;13.00;12.75;;;;;;;;5117856;28;8795;-76
2021/10/23 09:38:09;;;;;;;;;12.25;11.25;;;;;;;;5118921;27;8759;-75
2021/10/23 09:40:36;;;;;;;;;14.25;14.25;;;;;;;;5117958;28;8922;-75
2021/10/23 09:43:05;;;;;;;;;12.75;12.75;;;;;;;;5119029;27;8790;-75
2021/10/23 09:45:31;;;;;;;;;13.50;11.00;;;;;;;;5117854;28;8868;-76
2021/10/23 09:48:03;;;;;;;;;14.33;13.00;;;;;;;;5118660;27;8799;-76
2021/10/23 09:50:29;;;;;;;;;14.00;12.00;;;;;;;;5117650;28;8795;-76
2021/10/23 09:52:54;;;;;;;;;13.00;12.00;;;;;;;;5118517;27;8842;-75
2021/10/23 09:55:19;;;;;;;;;13.33;13.00;;;;;;;;5117634;28;8798;-75
2021/10/23 09:57:44;;;;;;;;;12.00;11.67;;;;;;;;5118869;27;8830;-75
2021/10/23 10:00:11;;;;;;;;;17.33;15.33;;;;;;;;5117415;28;8819;-76
2021/10/23 10:02:38;;;;;;;;;16.75;16.00;;;;;;;;5118914;27;8792;-75
2021/10/23 10:05:04;;;;;;;;;18.50;14.25;;;;;;;;5117394;28;8768;-75
2021/10/23 10:07:30;;;;;;;;;12.67;11.67;;;;;;;;5118597;27;8810;-75
2021/10/23 10:09:55;;;;;;;;;14.00;12.50;;;;;;;;5118381;27;8833;-78
2021/10/23 10:12:20;;;;;;;;;10.33;9.00;;;;;;;;5118701;27;8810;-78
2021/10/23 10:14:46;;;;;;;;;15.00;13.33;;;;;;;;5117399;28;8795;-78
2021/10/23 10:17:11;;;;;;;;;15.00;12.00;;;;;;;;5116855;27;9023;-78
2021/10/23 10:19:38;;;;;;;;;12.67;12.00;;;;;;;;5118551;27;8841;-77
2021/10/23 10:22:04;;;;;;;;;13.50;13.25;;;;;;;;5118240;27;8829;-78
2021/10/23 10:24:32;;;;;;;;;11.75;11.50;;;;;;;;5117083;27;8887;-75
2021/10/23 10:26:58;;;;;;;;;17.00;15.25;;;;;;;;5118809;27;8869;-77
2021/10/23 10:29:33;;;;;;;;;17.33;15.67;;;;;;;;5117526;27;8791;-76
2021/10/23 10:32:10;;;;;;;;;17.00;15.00;;;;;;;;5097932;28;8778;-76
2021/10/23 10:43:06;;;;;;;;;17.50;17.50;;;;;;;;5097579;28;8754;-76
2021/10/23 10:45:34;;;;;;;;;15.75;15.00;;;;;;;;5096348;28;8797;-75
2021/10/23 10:48:09;;;;;;;;;16.75;13.50;;;;;;;;5097879;28;9644;-75
2021/10/23 10:50:43;;;;;;;;;15.25;14.25;;;;;;;;5097605;28;8746;-75
2021/10/23 10:53:17;;;;;;;;;17.00;14.25;;;;;;;;5097226;28;8812;-76
2021/10/23 10:55:43;;;;;;;;;19.25;17.00;;;;;;;;5097609;28;8880;-75
2021/10/23 10:58:09;;;;;;;;;15.00;13.00;;;;;;;;5100164;28;8848;-78
2021/10/23 11:00:52;;;;;;;;;12.75;12.25;;;;;;;;5099519;28;9861;-78
2021/10/23 11:03:37;;;;;;;;;11.00;10.50;;;;;;;;5098136;28;8851;-78
2021/10/23 11:06:20;;;;;;;;;13.75;13.00;;;;;;;;5100691;28;8843;-79
2021/10/23 11:08:46;;;;;;;;;12.25;12.25;;;;;;;;5104476;28;8813;-78
2021/10/23 11:11:11;;;;;;;;;11.33;11.33;;;;;;;;5103496;28;8798;-78
2021/10/23 11:13:45;;;;;;;;;13.67;12.67;;;;;;;;5098268;28;8881;-75
2021/10/23 11:16:23;;;;;;;;;12.50;12.50;;;;;;;;5097001;28;8809;-76
2021/10/23 11:18:56;;;;;;;;;14.75;13.75;;;;;;;;5097210;28;9699;-75
2021/10/23 11:21:22;;;;;;;;;13.75;12.00;;;;;;;;5097233;28;8792;-76
2021/10/23 11:23:51;;;;;;;;;14.33;14.00;;;;;;;;5096994;28;8790;-76
2021/10/23 11:26:17;;;;;;;;;13.75;13.00;;;;;;;;5097107;28;8777;-77
2021/10/23 11:28:43;;;;;;;;;12.00;12.00;;;;;;;;5095711;28;8797;-75
2021/10/23 11:31:17;;;;;;;;;9.33;9.33;;;;;;;;5112572;28;8823;-75
2021/10/23 11:33:43;;;;;;;;;10.50;9.75;;;;;;;;5117402;27;8791;-74
2021/10/23 11:36:16;;;;;;;;;15.00;14.00;;;;;;;;5117454;27;9019;-78
2021/10/23 11:38:45;;;;;;;;;9.50;9.50;;;;;;;;5119176;27;8716;-78
2021/10/23 11:41:11;;;;;;;;;5.00;4.25;;;;;;;;5122449;27;8787;-78
2021/10/23 11:43:39;;;;;;;;;10.00;10.00;;;;;;;;5118226;28;8843;-77
2021/10/23 11:46:06;;;;;;;;;9.00;8.00;;;;;;;;5121299;28;8811;-79
2021/10/23 11:48:31;;;;;;;;;10.00;9.00;;;;;;;;5122989;27;8768;-78
2021/10/23 11:50:56;;;;;;;;;7.00;7.00;;;;;;;;5118601;27;8831;-77
2021/10/23 11:53:28;;;;;;;;;5.67;5.67;;;;;;;;5116853;27;8795;-75
2021/10/23 11:56:03;;;;;;;;;5.75;4.75;;;;;;;;5117053;27;8767;-75
2021/10/23 11:58:29;;;;;;;;;8.25;6.75;;;;;;;;5115571;28;8795;-74
2021/10/23 12:00:59;;;;;;;;;7.25;7.25;;;;;;;;5115754;28;8795;-74
2021/10/23 12:03:52;;;;;;;;;19.50;18.75;;;;;;;;5117059;27;8820;-76
2021/10/23 12:06:25;;;;;;;;;23.00;22.25;;;;;;;;5113587;28;8782;-76
2021/10/23 12:08:51;;;;;;;;;14.25;13.50;;;;;;;;5113585;27;8759;-75
2021/10/23 12:11:19;;;;;;;;;17.00;14.33;;;;;;;;5103768;28;8810;-77
2021/10/23 12:13:52;;;;;;;;;11.00;11.00;;;;;;;;5106843;28;9767;-80
2021/10/23 12:16:26;;;;;;;;;12.50;12.00;;;;;;;;5113984;28;8813;-79
2021/10/23 12:18:58;;;;;;;;;9.25;9.25;;;;;;;;5113047;28;8757;-80
2021/10/23 12:21:23;;;;;;;;;9.25;8.75;;;;;;;;5110766;28;8781;-79
2021/10/23 12:23:48;;;;;;;;;12.33;11.00;;;;;;;;5113602;28;8816;-79
2021/10/23 12:26:14;;;;;;;;;9.00;8.00;;;;;;;;5111138;28;8805;-79
2021/10/23 12:28:55;;;;;;;;;10.25;9.25;;;;;;;;5112419;28;8715;-80
2021/10/23 12:31:20;;;;;;;;;10.25;9.00;;;;;;;;5120676;28;8827;-83
2021/10/23 12:34:12;;;;;;;;;9.33;9.33;;;;;;;;5124697;27;8767;-81
2021/10/23 12:36:46;;;;;;;;;9.50;8.75;;;;;;;;5123954;27;8856;-82
2021/10/23 12:39:25;;;;;;;;;7.75;7.75;;;;;;;;5116169;27;8806;-78
2021/10/23 12:41:50;;;;;;;;;10.50;9.75;;;;;;;;5114015;28;8783;-77
2021/10/23 12:44:17;;;;;;;;;10.00;8.33;;;;;;;;5116119;28;8818;-74
2021/10/23 12:46:43;;;;;;;;;7.25;7.25;;;;;;;;5118996;28;8799;-75
2021/10/23 12:49:09;;;;;;;;;6.00;6.00;;;;;;;;5121022;28;8756;-74
2021/10/23 12:51:34;;;;;;;;;6.00;5.67;;;;;;;;5121245;28;11503;-80
2021/10/23 12:53:59;;;;;;;;;7.67;5.33;;;;;;;;5120568;28;8841;-81
2021/10/23 12:56:25;;;;;;;;;4.00;4.00;;;;;;;;5114117;28;8821;-82
2021/10/23 12:58:50;;;;;;;;;4.00;4.00;;;;;;;;5127399;28;8878;-80
2021/10/23 13:01:15;;;;;;;;;4.00;4.00;;;;;;;;5130765;28;8799;-80
2021/10/23 13:03:41;;;;;;;;;3.00;3.00;;;;;;;;5124365;28;8903;-78
2021/10/23 13:06:06;;;;;;;;;4.33;4.33;;;;;;;;5102132;28;8830;-77
2021/10/23 13:08:31;;;;;;;;;6.00;6.00;;;;;;;;5111138;28;8879;-80
2021/10/23 13:10:57;;;;;;;;;4.00;4.00;;;;;;;;5118290;28;8827;-79
2021/10/23 13:13:22;;;;;;;;;5.00;4.67;;;;;;;;5112424;28;8791;-80
2021/10/23 13:15:47;;;;;;;;;4.00;4.00;;;;;;;;5109303;28;8787;-79
2021/10/23 13:18:12;;;;;;;;;6.00;6.00;;;;;;;;5102201;28;8845;-80
2021/10/23 13:20:38;;;;;;;;;4.67;4.00;;;;;;;;5111142;28;8801;-80
2021/10/23 13:23:03;;;;;;;;;4.00;4.00;;;;;;;;5108854;28;8868;-79
2021/10/23 13:25:28;;;;;;;;;4.67;3.33;;;;;;;;5115688;28;8851;-78
2021/10/23 13:27:54;;;;;;;;;3.00;2.00;;;;;;;;5109830;28;8801;-78
2021/10/23 13:30:19;;;;;;;;;3.67;3.67;;;;;;;;5120477;28;8815;-78
2021/10/23 13:32:44;;;;;;;;;3.67;3.00;;;;;;;;5133886;27;8856;-77
2021/10/23 13:35:10;;;;;;;;;4.00;3.67;;;;;;;;5132784;28;8825;-77
2021/10/23 13:37:35;;;;;;;;;2.33;2.33;;;;;;;;5134691;28;8826;-78
2021/10/23 13:40:00;;;;;;;;;2.67;2.67;;;;;;;;5135564;28;8795;-77
2021/10/23 13:42:25;;;;;;;;;3.00;3.00;;;;;;;;5136434;27;8779;-77
2021/10/23 13:44:51;;;;;;;;;2.33;2.33;;;;;;;;5135778;27;8801;-77
2021/10/23 13:47:19;;;;;;;;;4.00;3.67;;;;;;;;5137653;28;8755;-77
2021/10/23 13:49:44;;;;;;;;;3.00;2.00;;;;;;;;5137855;27;8735;-76
2021/10/23 13:52:09;;;;;;;;;3.67;3.67;;;;;;;;5137555;27;8816;-78
2021/10/23 13:54:34;;;;;;;;;3.00;3.00;;;;;;;;5136213;27;8776;-78
2021/10/23 13:57:00;;;;;;;;;5.00;5.00;;;;;;;;5137218;27;8778;-77
2021/10/23 13:59:25;;;;;;;;;3.33;3.33;;;;;;;;5136953;27;8782;-79
2021/10/23 14:01:50;;;;;;;;;3.00;3.00;;;;;;;;5136121;27;8844;-78
2021/10/23 14:04:15;;;;;;;;;4.00;4.00;;;;;;;;5135281;27;8803;-78
2021/10/23 14:06:41;;;;;;;;;3.00;3.00;;;;;;;;5134807;27;8806;-78
2021/10/23 14:09:06;;;;;;;;;2.33;2.33;;;;;;;;5135264;27;8799;-78
2021/10/23 14:11:31;;;;;;;;;4.00;3.00;;;;;;;;5135111;28;8806;-78
2021/10/23 14:13:57;;;;;;;;;3.00;3.00;;;;;;;;5138197;27;8828;-78
2021/10/23 14:16:23;;;;;;;;;1.75;1.75;;;;;;;;5136546;27;8880;-78
2021/10/23 14:18:48;;;;;;;;;5.67;5.67;;;;;;;;5136796;27;8775;-78
2021/10/23 14:21:14;;;;;;;;;6.33;6.33;;;;;;;;5137041;27;8819;-78
2021/10/23 14:23:39;;;;;;;;;7.00;7.00;;;;;;;;5137102;27;8731;-79
2021/10/23 14:26:06;;;;;;;;;7.00;6.67;;;;;;;;5135119;27;10667;-77
2021/10/23 14:28:40;;;;;;;;;9.00;7.25;;;;;;;;5135835;27;8738;-78
2021/10/23 14:31:09;;;;;;;;;10.75;10.50;;;;;;;;5131627;28;8791;-78
2021/10/23 14:33:35;;;;;;;;;15.75;15.75;;;;;;;;5130178;28;8770;-77
2021/10/23 14:36:00;;;;;;;;;6.00;5.00;;;;;;;;5132238;28;8791;-78
2021/10/23 14:38:25;;;;;;;;;6.00;6.00;;;;;;;;5134755;27;8775;-78
2021/10/23 14:40:50;;;;;;;;;5.33;4.00;;;;;;;;5129390;27;8802;-78
2021/10/23 14:43:15;;;;;;;;;4.00;4.00;;;;;;;;5126930;28;8843;-78